createdAt,value
2023-05-09T00:00:39.728Z,77.84
2023-05-09T00:05:42.665Z,73.95
2023-05-09T00:10:46.919Z,76.08
2023-05-09T00:15:49.803Z,78.25
2023-05-09T00:20:52.887Z,76.87
2023-05-09T00:25:57.279Z,75.21
2023-05-09T00:31:00.265Z,69.49
2023-05-09T00:36:03.165Z,70.11
2023-05-09T00:41:07.546Z,71.55
2023-05-09T00:46:10.582Z,73.76
2023-05-09T00:51:13.549Z,73.52
2023-05-09T00:56:18.503Z,72.94
2023-05-09T01:01:21.483Z,73.10
2023-05-09T01:06:39.726Z,73.09
2023-05-09T01:11:50.114Z,72.25
2023-05-09T01:16:59.580Z,71.44
2023-05-09T01:22:04.629Z,70.70
2023-05-09T01:27:22.214Z,71.26
2023-05-09T01:32:29.743Z,70.88
2023-05-09T01:37:35.019Z,69.89
2023-05-09T01:42:43.594Z,70.92
2023-05-09T01:47:50.078Z,68.92
2023-05-09T01:52:57.512Z,70.62
2023-05-09T01:58:00.947Z,69.70
2023-05-09T02:03:05.953Z,69.19
2023-05-09T02:08:09.627Z,68.24
2023-05-09T02:13:12.743Z,67.85
2023-05-09T02:18:17.323Z,70.95
2023-05-09T02:23:20.907Z,70.80
2023-05-09T02:28:24.896Z,68.39
2023-05-09T02:33:29.885Z,67.36
2023-05-09T02:38:33.368Z,66.88
2023-05-09T02:43:38.325Z,66.62
2023-05-09T02:48:43.063Z,68.42
2023-05-09T02:53:46.003Z,66.60
2023-05-09T02:58:51.477Z,70.04
2023-05-09T03:03:55.930Z,69.11
2023-05-09T03:08:59.322Z,71.32
2023-05-09T03:14:02.466Z,71.85
2023-05-09T03:19:07.222Z,73.00
2023-05-09T03:24:11.788Z,74.42
2023-05-09T03:29:14.753Z,75.96
2023-05-09T03:34:19.129Z,77.45
2023-05-09T03:39:22.281Z,77.08
2023-05-09T03:44:30.160Z,77.09
2023-05-09T03:49:34.471Z,78.32
2023-05-09T03:54:37.430Z,77.52
2023-05-09T03:59:40.667Z,79.39
2023-05-09T04:04:46.618Z,78.61
2023-05-09T04:09:50.315Z,80.05
2023-05-09T04:14:53.458Z,80.86
2023-05-09T04:19:58.641Z,73.70
2023-05-09T04:25:02.025Z,65.76
2023-05-09T04:30:06.328Z,58.15
2023-05-09T04:35:11.891Z,55.19
2023-05-09T04:40:18.491Z,49.87
2023-05-09T04:45:31.857Z,48.91
2023-05-09T04:50:37.675Z,46.55
2023-05-09T04:55:40.593Z,46.85
2023-05-09T05:00:43.978Z,46.74
2023-05-09T05:05:48.483Z,44.83
2023-05-09T05:10:51.856Z,46.66
2023-05-09T05:15:56.380Z,48.64
2023-05-09T05:21:00.705Z,46.14
2023-05-09T05:26:03.813Z,49.76
2023-05-09T05:31:08.676Z,46.46
2023-05-09T05:36:12.968Z,46.14
2023-05-09T05:41:16.072Z,45.54
2023-05-09T05:46:21.593Z,46.98
2023-05-09T05:51:26.205Z,44.81
2023-05-09T05:56:29.628Z,46.66
2023-05-09T06:01:33.456Z,46.31
2023-05-09T06:06:37.996Z,45.31
2023-05-09T06:11:41.045Z,44.91
2023-05-09T06:16:44.272Z,44.32
2023-05-09T06:21:48.629Z,44.90
2023-05-09T06:26:51.768Z,44.58
2023-05-09T06:31:54.827Z,44.85
2023-05-09T06:36:59.146Z,45.17
2023-05-09T06:42:02.064Z,42.66
2023-05-09T06:47:10.154Z,44.52
2023-05-09T06:52:15.785Z,42.37
2023-05-09T06:57:18.754Z,41.91
2023-05-09T07:02:21.651Z,41.67
2023-05-09T07:07:25.882Z,41.51
2023-05-09T07:25:32.095Z,41.19
2023-05-09T07:30:35.045Z,40.26
2023-05-09T07:35:37.903Z,40.89
2023-05-09T07:40:42.138Z,41.40
2023-05-09T07:45:45.109Z,40.67
2023-05-09T07:50:48.050Z,40.58
2023-05-09T07:55:52.271Z,40.34
2023-05-09T08:00:57.119Z,40.34
2023-05-09T08:18:33.033Z,38.85
2023-05-09T08:23:36.031Z,39.78
2023-05-09T08:28:38.903Z,40.31
2023-05-09T08:33:43.166Z,38.75
2023-05-09T08:38:46.027Z,37.88
2023-05-09T08:43:50.260Z,39.27
2023-05-09T08:48:55.295Z,38.00
2023-05-09T08:53:58.695Z,37.08
2023-05-09T09:06:11.376Z,36.71
2023-05-09T09:11:16.005Z,36.50
2023-05-09T09:16:21.868Z,36.87
2023-05-09T09:21:26.278Z,36.51
2023-05-09T09:26:31.714Z,35.94
2023-05-09T09:31:34.841Z,36.74
2023-05-09T09:36:39.140Z,35.40
2023-05-09T09:41:43.798Z,34.40
2023-05-09T09:46:48.878Z,35.34
2023-05-09T09:51:54.884Z,35.90
2023-05-09T09:56:57.813Z,35.61
2023-05-09T10:02:04.178Z,34.83
2023-05-09T10:07:14.823Z,34.51
2023-05-09T10:12:20.094Z,34.80
2023-05-09T10:17:24.727Z,34.10
2023-05-09T10:22:30.998Z,35.39
2023-05-09T10:27:37.439Z,35.40
2023-05-09T10:32:44.526Z,34.75
2023-05-09T10:37:49.708Z,33.67
2023-05-09T10:42:52.645Z,34.85
2023-05-09T10:47:57.437Z,35.15
2023-05-09T10:53:11.102Z,33.73
2023-05-09T10:58:26.269Z,34.19
2023-05-09T11:03:31.025Z,33.78
2023-05-09T11:08:35.483Z,32.36
2023-05-09T11:13:39.075Z,33.44
2023-05-09T11:18:53.164Z,34.07
2023-05-09T11:23:57.440Z,32.63
2023-05-09T11:29:02.780Z,32.01
2023-05-09T11:34:06.744Z,31.66
2023-05-09T11:39:12.447Z,31.96
2023-05-09T11:44:19.662Z,31.37
2023-05-09T11:49:22.581Z,31.43
2023-05-09T11:54:26.891Z,32.45
2023-05-09T11:59:29.822Z,31.32
2023-05-09T12:04:33.267Z,30.12
2023-05-09T12:09:38.679Z,30.90
2023-05-09T12:14:42.615Z,29.83
2023-05-09T12:19:45.643Z,30.26
2023-05-09T12:24:50.587Z,30.03
2023-05-09T12:29:55.089Z,31.05
2023-05-09T12:34:58.049Z,29.29
2023-05-09T12:40:07.542Z,29.64
2023-05-09T12:45:11.621Z,30.38
2023-05-09T12:50:14.622Z,30.46
2023-05-09T12:55:20.017Z,28.87
2023-05-09T13:00:43.662Z,29.05
2023-05-09T13:05:55.339Z,30.60
2023-05-09T13:11:12.000Z,30.28
2023-05-09T13:16:18.330Z,30.46
2023-05-09T13:21:21.321Z,30.99
2023-05-09T13:26:27.063Z,30.73
2023-05-09T13:31:29.970Z,30.17
2023-05-09T13:36:32.983Z,29.23
2023-05-09T13:41:38.210Z,30.43
2023-05-09T13:46:41.437Z,29.54
2023-05-09T13:51:45.280Z,29.40
2023-05-09T13:56:51.248Z,29.66
2023-05-09T14:01:54.610Z,29.29
2023-05-09T14:06:58.244Z,29.42
2023-05-09T14:12:02.631Z,30.96
2023-05-09T14:17:05.526Z,31.19
2023-05-09T14:22:08.825Z,30.82
2023-05-09T14:27:13.115Z,31.23
2023-05-09T14:32:16.120Z,32.25
2023-05-09T14:37:19.031Z,31.69
2023-05-09T14:42:23.338Z,33.14
2023-05-09T14:47:26.363Z,33.69
2023-05-09T14:52:29.638Z,32.64
2023-05-09T14:57:34.373Z,32.02
2023-05-09T15:02:37.376Z,33.31
2023-05-09T15:07:40.477Z,33.85
2023-05-09T15:12:45.129Z,34.20
2023-05-09T15:17:48.388Z,34.39
2023-05-09T15:22:51.729Z,34.50
2023-05-09T15:27:56.727Z,35.40
2023-05-09T15:32:59.972Z,35.16
2023-05-09T15:38:02.975Z,33.65
2023-05-09T15:43:08.576Z,35.17
2023-05-09T15:48:15.110Z,34.84
2023-05-09T15:53:17.961Z,35.15
2023-05-09T15:58:22.260Z,35.13
2023-05-09T16:03:25.943Z,35.74
2023-05-09T16:08:28.915Z,36.07
2023-05-09T16:13:35.712Z,36.74
2023-05-09T16:18:39.114Z,36.88
2023-05-09T16:23:42.161Z,37.35
2023-05-09T16:28:46.442Z,36.93
2023-05-09T16:33:49.394Z,36.88
2023-05-09T16:38:52.533Z,37.88
2023-05-09T16:43:57.296Z,37.43
2023-05-09T16:49:01.342Z,37.06
2023-05-09T16:54:04.743Z,36.38
2023-05-09T16:59:09.172Z,36.23
2023-05-09T17:04:12.176Z,38.11
2023-05-09T17:09:15.301Z,38.17
2023-05-09T17:14:19.880Z,38.25
2023-05-09T17:19:23.742Z,38.20
2023-05-09T17:24:26.842Z,38.15
2023-05-09T17:29:31.170Z,39.40
2023-05-09T17:34:34.143Z,39.80
2023-05-09T17:39:37.789Z,40.12
2023-05-09T17:44:44.184Z,40.48
2023-05-09T17:49:47.360Z,40.09
2023-05-09T17:54:50.257Z,40.81
2023-05-09T17:59:54.571Z,41.94
2023-05-09T18:04:57.531Z,41.34
2023-05-09T18:10:00.440Z,42.37
2023-05-09T18:15:05.256Z,42.36
2023-05-09T18:20:09.653Z,42.71
2023-05-09T18:25:12.584Z,43.12
2023-05-09T18:30:17.494Z,43.62
2023-05-09T18:35:20.705Z,43.90
2023-05-09T18:40:23.645Z,44.35
2023-05-09T18:45:28.041Z,44.89
2023-05-09T18:50:31.475Z,45.23
2023-05-09T18:55:34.500Z,45.46
2023-05-09T19:00:39.455Z,45.26
2023-05-09T19:05:42.956Z,45.44
2023-05-09T19:10:45.949Z,46.16
2023-05-09T19:15:50.326Z,46.44
2023-05-09T19:20:53.296Z,47.19
2023-05-09T19:25:56.781Z,47.13
2023-05-09T19:31:01.114Z,47.97
2023-05-09T19:36:04.243Z,48.54
2023-05-09T19:41:07.209Z,48.86
2023-05-09T19:46:11.647Z,48.52
2023-05-09T19:51:15.480Z,49.23
2023-05-09T19:56:18.378Z,49.95
2023-05-09T20:01:22.708Z,49.68
2023-05-09T20:06:25.813Z,50.09
2023-05-09T20:11:28.769Z,50.50
2023-05-09T20:16:33.090Z,50.78
2023-05-09T20:21:36.416Z,51.38
2023-05-09T20:26:39.347Z,51.50
2023-05-09T20:31:44.482Z,51.63
2023-05-09T20:36:49.188Z,51.52
2023-05-09T20:41:52.478Z,52.00
2023-05-09T20:46:56.756Z,52.05
2023-05-09T20:51:59.850Z,52.26
2023-05-09T20:57:02.732Z,52.45
2023-05-09T21:02:07.020Z,52.84
2023-05-09T21:07:11.976Z,52.70
2023-05-09T21:12:14.907Z,53.16
2023-05-09T21:17:19.493Z,53.51
2023-05-09T21:22:22.435Z,53.33
2023-05-09T21:27:25.395Z,52.77
2023-05-09T21:32:29.750Z,53.09
2023-05-09T21:37:32.723Z,52.19
2023-05-09T21:42:37.358Z,52.48
2023-05-09T21:47:41.819Z,53.20
2023-05-09T21:52:44.864Z,53.57
2023-05-09T21:57:47.753Z,53.65
2023-05-09T22:02:52.072Z,53.85
2023-05-09T22:07:55.028Z,53.69
2023-05-09T22:12:58.279Z,54.06
2023-05-09T22:18:02.723Z,53.76
2023-05-09T22:23:05.615Z,55.11
2023-05-09T22:28:09.215Z,54.04
2023-05-09T22:33:13.661Z,54.79
2023-05-09T22:38:16.623Z,55.01
2023-05-09T22:43:20.239Z,55.66
2023-05-09T22:48:24.574Z,55.20
2023-05-09T22:53:28.145Z,55.49
2023-05-09T22:58:31.108Z,55.21
2023-05-09T23:03:35.488Z,55.61
2023-05-09T23:08:38.425Z,56.00
2023-05-09T23:13:41.350Z,56.71
2023-05-09T23:18:45.604Z,56.76
2023-05-09T23:23:48.529Z,56.55
2023-05-09T23:28:51.845Z,56.60
2023-05-09T23:33:56.221Z,56.24
2023-05-09T23:38:59.149Z,57.56
2023-05-09T23:44:03.453Z,58.08
2023-05-09T23:49:07.901Z,57.99
2023-05-09T23:54:11.116Z,58.36
2023-05-09T23:59:14.028Z,57.58
